Chester, Texas
Current Conditions -  °F | °C
As of 6:53 PM on Sunday 23 Nov 2014 (Local Time) from KLFK Reporting Station
Clear Clear  
Wind Chill: 68°   Ceiling: Unl
Heat Index: 68°   Visibility: 10mi
Dew Point: 53°   Wind: 6mph
Humidity: 59%   Direction: 200°SSW
Pressure: 29.56"   Gusts: NA
Location:  30.93°N, 94.6°W
Report Text: KLFK 240053Z AUTO 20005KT 10SM CLR 20/12 A2956 RMK AO2 SLP005 T02000117 $
Loading
Personal Weather Stations






























Interactive Weather Map New forecast layout! Learn more

10-Day Weather Forecast

Advertisements
Track Severe Weather on mobile